Time,TemperatureF,DewpointF,PressureIn,WindDirection,WindDirectionDegrees,WindSpeedMPH,WindSpeedGustMPH,Humidity,HourlyPrecipIn,Conditions,Clouds,dailyrainin,SoftwareType,DateUTC
2013-03-07 00:01:00,27.0,22.5,30.29,East,96,2.0,9.0,83,0.00,,SKC,0.00,VWS V14.01,2013-03-07 06:01:00,
2013-03-07 00:05:00,26.9,22.1,30.29,East,99,6.0,9.0,82,0.00,,SKC,0.00,VWS V14.01,2013-03-07 06:05:00,
2013-03-07 00:09:00,26.7,22.0,30.30,ESE,109,5.0,9.0,82,0.00,,SKC,0.00,VWS V14.01,2013-03-07 06:09:00,
2013-03-07 00:17:00,26.7,22.0,30.31,ESE,105,4.0,9.0,82,0.00,,SKC,0.00,VWS V14.01,2013-03-07 06:17:00,
2013-03-07 00:25:00,26.6,21.9,30.30,ESE,109,5.0,9.0,82,0.00,,SKC,0.00,VWS V14.01,2013-03-07 06:25:00,
2013-03-07 00:29:00,26.5,21.8,30.30,ESE,107,5.0,9.0,82,0.00,,SKC,0.00,VWS V14.01,2013-03-07 06:29:00,
2013-03-07 00:33:00,26.4,21.7,30.29,ESE,107,7.0,8.0,82,0.00,,SKC,0.00,VWS V14.01,2013-03-07 06:33:00,
2013-03-07 00:37:00,26.3,21.9,30.29,ESE,105,8.0,9.0,83,0.00,,SKC,0.00,VWS V14.01,2013-03-07 06:37:00,
2013-03-07 00:45:00,25.8,21.4,30.29,ESE,103,5.0,9.0,83,0.00,,SKC,0.00,VWS V14.01,2013-03-07 06:45:00,
2013-03-07 00:49:00,25.6,21.5,30.29,East,101,5.0,9.0,84,0.00,,SKC,0.00,VWS V14.01,2013-03-07 06:49:00,
2013-03-07 00:57:00,25.4,21.2,30.29,ESE,105,4.0,9.0,84,0.00,,SKC,0.00,VWS V14.01,2013-03-07 06:57:00,
2013-03-07 01:01:00,25.3,21.1,30.29,East,98,3.0,6.0,84,0.00,,SKC,0.00,VWS V14.01,2013-03-07 07:01:00,
2013-03-07 01:09:00,25.1,21.2,30.29,East,100,6.0,7.0,85,0.00,,SKC,0.00,VWS V14.01,2013-03-07 07:09:00,
2013-03-07 01:13:00,25.1,21.2,30.29,ESE,105,3.0,7.0,85,0.00,,SKC,0.00,VWS V14.01,2013-03-07 07:13:00,
2013-03-07 01:21:00,24.9,21.3,30.28,East,94,7.0,8.0,86,0.00,,SKC,0.00,VWS V14.01,2013-03-07 07:21:00,
2013-03-07 01:25:00,24.9,21.3,30.28,East,93,8.0,9.0,86,0.00,,SKC,0.00,VWS V14.01,2013-03-07 07:25:00,
2013-03-07 01:33:00,25.0,21.4,30.28,ESE,113,8.0,9.0,86,0.00,,SKC,0.00,VWS V14.01,2013-03-07 07:33:00,
2013-03-07 01:41:00,25.0,21.1,30.28,ESE,122,3.0,9.0,85,0.00,,SKC,0.00,VWS V14.01,2013-03-07 07:41:00,
2013-03-07 01:49:00,25.1,21.2,30.28,ESE,103,5.0,9.0,85,0.00,,SKC,0.00,VWS V14.01,2013-03-07 07:49:00,
2013-03-07 01:53:00,24.9,21.0,30.28,ESE,107,9.0,10.0,85,0.00,,SKC,0.00,VWS V14.01,2013-03-07 07:53:00,
2013-03-07 01:59:00,24.8,21.2,30.28,East,95,6.0,10.0,86,0.00,,SKC,0.00,VWS V14.01,2013-03-07 07:59:00,
2013-03-07 02:01:00,24.8,21.2,30.28,ESE,106,5.0,10.0,86,0.00,,SKC,0.00,VWS V14.01,2013-03-07 08:01:00,
2013-03-07 02:09:00,24.7,20.8,30.28,ESE,110,5.0,11.0,85,0.00,,SKC,0.00,VWS V14.01,2013-03-07 08:09:00,
2013-03-07 02:17:00,24.5,20.6,30.28,ENE,76,4.0,11.0,85,0.00,,SKC,0.00,VWS V14.01,2013-03-07 08:17:00,
2013-03-07 02:25:00,24.5,20.9,30.28,East,90,7.0,11.0,86,0.00,,SKC,0.00,VWS V14.01,2013-03-07 08:25:00,
2013-03-07 02:29:00,24.6,20.7,30.28,ESE,105,5.0,11.0,85,0.00,,SKC,0.00,VWS V14.01,2013-03-07 08:29:00,
2013-03-07 02:33:00,24.7,20.8,30.29,East,93,3.0,9.0,85,0.00,,SKC,0.00,VWS V14.01,2013-03-07 08:33:00,
2013-03-07 02:37:00,24.7,20.8,30.29,East,86,3.0,9.0,85,0.00,,SKC,0.00,VWS V14.01,2013-03-07 08:37:00,
2013-03-07 02:45:00,24.5,20.6,30.28,ESE,103,2.0,9.0,85,0.00,,SKC,0.00,VWS V14.01,2013-03-07 08:45:00,
2013-03-07 02:49:00,24.4,20.5,30.28,East,92,6.0,9.0,85,0.00,,SKC,0.00,VWS V14.01,2013-03-07 08:49:00,
2013-03-07 02:53:00,24.4,20.5,30.28,East,95,3.0,9.0,85,0.00,,SKC,0.00,VWS V14.01,2013-03-07 08:53:00,
2013-03-07 02:57:00,24.3,20.5,30.28,East,95,3.0,9.0,85,0.00,,SKC,0.00,VWS V14.01,2013-03-07 08:57:00,
2013-03-07 03:01:00,24.3,20.5,30.28,ESE,105,5.0,7.0,85,0.00,,SKC,0.00,VWS V14.01,2013-03-07 09:01:00,
2013-03-07 03:09:00,24.3,20.5,30.28,ESE,102,4.0,7.0,85,0.00,,SKC,0.00,VWS V14.01,2013-03-07 09:09:00,
2013-03-07 03:13:00,24.4,20.5,30.27,ESE,105,7.0,9.0,85,0.00,,SKC,0.00,VWS V14.01,2013-03-07 09:13:00,
2013-03-07 03:17:00,24.5,20.6,30.27,East,96,5.0,10.0,85,0.00,,SKC,0.00,VWS V14.01,2013-03-07 09:17:00,
2013-03-07 03:26:00,24.4,20.5,30.26,East,93,9.0,10.0,85,0.00,,SKC,0.00,VWS V14.01,2013-03-07 09:26:00,
2013-03-07 03:34:00,24.4,20.5,30.26,SSW,192,2.0,7.0,85,0.00,,SKC,0.00,VWS V14.01,2013-03-07 09:34:00,
2013-03-07 03:38:00,24.3,20.5,30.26,SE,134,3.0,8.0,85,0.00,,SKC,0.00,VWS V14.01,2013-03-07 09:38:00,
2013-03-07 03:46:00,24.2,20.4,30.25,SE,132,2.0,8.0,85,0.00,,SKC,0.00,VWS V14.01,2013-03-07 09:46:00,
2013-03-07 03:54:00,24.3,20.7,30.26,SSE,165,4.0,8.0,86,0.00,,SKC,0.00,VWS V14.01,2013-03-07 09:54:00,
2013-03-07 03:59:00,24.5,20.6,30.25,ESE,103,2.0,8.0,85,0.00,,SKC,0.00,VWS V14.01,2013-03-07 09:59:00,
2013-03-07 04:02:00,24.5,20.6,30.25,SSE,159,4.0,9.0,85,0.00,,SKC,0.00,VWS V14.01,2013-03-07 10:02:00,
2013-03-07 04:10:00,24.7,20.8,30.25,South,169,5.0,10.0,85,0.00,,SKC,0.00,VWS V14.01,2013-03-07 10:10:00,
2013-03-07 04:18:00,24.7,20.6,30.25,South,175,6.0,12.0,84,0.00,,SKC,0.00,VWS V14.01,2013-03-07 10:18:00,
2013-03-07 04:22:00,24.8,20.7,30.25,SSE,162,12.0,14.0,84,0.00,,SKC,0.00,VWS V14.01,2013-03-07 10:22:00,
2013-03-07 04:26:00,24.8,20.7,30.25,ESE,103,3.0,14.0,84,0.00,,SKC,0.00,VWS V14.01,2013-03-07 10:26:00,
2013-03-07 04:29:00,24.7,20.6,30.24,SSW,196,5.0,14.0,84,0.00,,SKC,0.00,VWS V14.01,2013-03-07 10:29:00,
2013-03-07 04:34:00,24.7,20.6,30.24,SE,126,3.0,9.0,84,0.00,,SKC,0.00,VWS V14.01,2013-03-07 10:34:00,
2013-03-07 04:42:00,24.7,20.6,30.24,SSE,157,6.0,12.0,84,0.00,,SKC,0.00,VWS V14.01,2013-03-07 10:42:00,
2013-03-07 04:46:00,24.7,20.6,30.24,SSE,153,8.0,12.0,84,0.00,,SKC,0.00,VWS V14.01,2013-03-07 10:46:00,
2013-03-07 04:50:00,24.7,20.6,30.24,SSE,161,3.0,12.0,84,0.00,,SKC,0.00,VWS V14.01,2013-03-07 10:50:00,
2013-03-07 04:58:00,24.5,20.4,30.24,SE,134,5.0,12.0,84,0.00,,SKC,0.00,VWS V14.01,2013-03-07 10:58:00,
2013-03-07 04:59:00,24.5,20.4,30.24,South,176,4.0,12.0,84,0.00,,SKC,0.00,VWS V14.01,2013-03-07 10:59:00,
2013-03-07 05:02:00,24.5,20.4,30.24,ESE,107,1.0,8.0,84,0.00,,SKC,0.00,VWS V14.01,2013-03-07 11:02:00,
2013-03-07 05:10:00,24.4,20.3,30.24,SSE,152,2.0,9.0,84,0.00,,SKC,0.00,VWS V14.01,2013-03-07 11:10:00,
2013-03-07 05:18:00,24.3,20.2,30.24,ESE,116,8.0,10.0,84,0.00,,SKC,0.00,VWS V14.01,2013-03-07 11:18:00,
2013-03-07 05:22:00,24.3,20.2,30.24,East,80,5.0,10.0,84,0.00,,SKC,0.00,VWS V14.01,2013-03-07 11:22:00,
2013-03-07 05:29:00,24.2,20.1,30.25,SE,130,2.0,10.0,84,0.00,,SKC,0.00,VWS V14.01,2013-03-07 11:29:00,
2013-03-07 05:30:00,24.2,20.1,30.25,South,179,3.0,5.0,84,0.00,,SKC,0.00,VWS V14.01,2013-03-07 11:30:00,
2013-03-07 05:38:00,24.0,19.9,30.25,WNW,303,1.0,9.0,84,0.00,,SKC,0.00,VWS V14.01,2013-03-07 11:38:00,
2013-03-07 05:46:00,24.0,19.9,30.25,ENE,74,2.0,9.0,84,0.00,,SKC,0.00,VWS V14.01,2013-03-07 11:46:00,
2013-03-07 05:54:00,24.0,19.9,30.26,East,80,2.0,11.0,84,0.00,,SKC,0.00,VWS V14.01,2013-03-07 11:54:00,
2013-03-07 05:58:00,24.0,19.9,30.25,SSW,198,3.0,11.0,84,0.00,,SKC,0.00,VWS V14.01,2013-03-07 11:58:00,
2013-03-07 06:02:00,23.9,19.8,30.25,East,93,5.0,7.0,84,0.00,,SKC,0.00,VWS V14.01,2013-03-07 12:02:00,
2013-03-07 06:10:00,24.0,19.9,30.26,NNE,17,4.0,13.0,84,0.00,,SKC,0.00,VWS V14.01,2013-03-07 12:10:00,
2013-03-07 06:14:00,24.0,19.9,30.26,East,85,5.0,13.0,84,0.00,,SKC,0.00,VWS V14.01,2013-03-07 12:14:00,
2013-03-07 06:27:00,23.9,19.8,30.26,SSW,202,0.0,13.0,84,0.00,,SKC,0.00,VWS V14.01,2013-03-07 12:27:00,
2013-03-07 06:29:00,23.9,19.8,30.26,SE,126,0.0,13.0,84,0.00,,SKC,0.00,VWS V14.01,2013-03-07 12:29:00,
2013-03-07 06:35:00,23.9,19.8,30.26,SSW,192,0.0,9.0,84,0.00,,SKC,0.00,VWS V14.01,2013-03-07 12:35:00,
2013-03-07 06:39:00,23.8,19.7,30.26,ENE,72,3.0,9.0,84,0.00,,SKC,0.00,VWS V14.01,2013-03-07 12:39:00,
2013-03-07 06:47:00,23.6,19.5,30.26,East,101,1.0,9.0,84,0.00,,SKC,0.00,VWS V14.01,2013-03-07 12:47:00,
2013-03-07 06:55:00,23.5,19.4,30.27,East,94,3.0,9.0,84,0.00,,SKC,0.00,VWS V14.01,2013-03-07 12:55:00,
2013-03-07 06:59:00,23.5,19.4,30.26,ENE,76,4.0,9.0,84,0.00,,SKC,0.00,VWS V14.01,2013-03-07 12:59:00,
2013-03-07 07:03:00,23.6,19.8,30.27,East,87,5.0,7.0,85,0.00,,SKC,0.00,VWS V14.01,2013-03-07 13:03:00,
2013-03-07 07:11:00,23.9,19.8,30.27,East,96,10.0,11.0,84,0.00,,SKC,0.00,VWS V14.01,2013-03-07 13:11:00,
2013-03-07 07:19:00,24.2,20.1,30.27,East,100,7.0,11.0,84,0.00,,SKC,0.00,VWS V14.01,2013-03-07 13:19:00,
2013-03-07 07:23:00,24.4,20.3,30.26,SE,143,5.0,13.0,84,0.00,,SKC,0.00,VWS V14.01,2013-03-07 13:23:00,
2013-03-07 07:27:00,24.6,20.2,30.26,ESE,117,4.0,13.0,83,0.00,,SKC,0.00,VWS V14.01,2013-03-07 13:27:00,
2013-03-07 07:31:00,24.8,20.4,30.27,East,98,7.0,10.0,83,0.00,,SKC,0.00,VWS V14.01,2013-03-07 13:31:00,
2013-03-07 07:39:00,25.3,20.6,30.27,ESE,107,10.0,13.0,82,0.00,,SKC,0.00,VWS V14.01,2013-03-07 13:39:00,
2013-03-07 07:43:00,25.5,20.8,30.27,ESE,107,11.0,13.0,82,0.00,,SKC,0.00,VWS V14.01,2013-03-07 13:43:00,
2013-03-07 07:51:00,25.8,21.1,30.27,SE,144,8.0,15.0,82,0.00,,SKC,0.00,VWS V14.01,2013-03-07 13:51:00,
2013-03-07 07:55:00,26.0,21.0,30.27,SE,133,11.0,15.0,81,0.00,,SKC,0.00,VWS V14.01,2013-03-07 13:55:00,
2013-03-07 07:59:00,26.3,21.3,30.27,South,181,4.0,17.0,81,0.00,,SKC,0.00,VWS V14.01,2013-03-07 13:59:00,
2013-03-07 08:03:00,26.5,21.5,30.27,ESE,112,11.0,14.0,81,0.00,,SKC,0.00,VWS V14.01,2013-03-07 14:03:00,
2013-03-07 08:07:00,26.7,21.7,30.27,ESE,109,10.0,15.0,81,0.00,,SKC,0.00,VWS V14.01,2013-03-07 14:07:00,
2013-03-07 08:15:00,27.0,21.7,30.27,West,278,4.0,16.0,80,0.00,,SKC,0.00,VWS V14.01,2013-03-07 14:15:00,
2013-03-07 08:19:00,27.4,22.4,30.27,ESE,123,4.0,16.0,81,0.00,,SKC,0.00,VWS V14.01,2013-03-07 14:19:00,
2013-03-07 08:23:00,27.8,22.4,30.27,SE,138,6.0,16.0,80,0.00,,SKC,0.00,VWS V14.01,2013-03-07 14:23:00,
2013-03-07 08:29:00,28.1,22.7,30.27,SE,132,3.0,16.0,80,0.00,,SKC,0.00,VWS V14.01,2013-03-07 14:29:00,
2013-03-07 08:35:00,28.5,23.1,30.27,ESE,107,13.0,14.0,80,0.00,,SKC,0.00,VWS V14.01,2013-03-07 14:35:00,
2013-03-07 08:39:00,28.9,23.5,30.27,East,100,15.0,15.0,80,0.00,,SKC,0.00,VWS V14.01,2013-03-07 14:39:00,
2013-03-07 08:47:00,29.2,23.2,30.27,East,101,11.0,16.0,78,0.00,,SKC,0.00,VWS V14.01,2013-03-07 14:47:00,
2013-03-07 08:55:00,29.6,23.3,30.26,SE,128,12.0,16.0,77,0.00,,SKC,0.00,VWS V14.01,2013-03-07 14:55:00,
2013-03-07 08:59:00,29.5,23.2,30.26,ESE,121,17.0,17.0,77,0.00,,SKC,0.00,VWS V14.01,2013-03-07 14:59:00,
2013-03-07 09:07:00,30.0,23.7,30.26,East,96,10.0,17.0,77,0.00,,SKC,0.00,VWS V14.01,2013-03-07 15:07:00,
2013-03-07 09:15:00,30.2,23.9,30.26,SE,136,8.0,17.0,77,0.00,,SKC,0.00,VWS V14.01,2013-03-07 15:15:00,
2013-03-07 09:24:00,30.6,24.3,30.26,ESE,115,9.0,18.0,77,0.00,,SKC,0.00,VWS V14.01,2013-03-07 15:24:00,
2013-03-07 09:28:00,31.3,24.9,30.25,ESE,119,7.0,18.0,77,0.00,,SKC,0.00,VWS V14.01,2013-03-07 15:28:00,
2013-03-07 09:36:00,32.2,25.5,30.25,ESE,108,13.0,16.0,76,0.00,,SKC,0.00,VWS V14.01,2013-03-07 15:36:00,
2013-03-07 09:44:00,32.5,24.8,30.24,SSW,196,3.0,16.0,73,0.00,,SKC,0.00,VWS V14.01,2013-03-07 15:44:00,
2013-03-07 09:48:00,32.5,24.8,30.25,ENE,61,9.0,19.0,73,0.00,,SKC,0.00,VWS V14.01,2013-03-07 15:48:00,
2013-03-07 09:52:00,32.8,25.1,30.25,East,89,7.0,19.0,73,0.00,,SKC,0.00,VWS V14.01,2013-03-07 15:52:00,
2013-03-07 09:56:00,33.2,25.5,30.25,East,87,8.0,19.0,73,0.00,,SKC,0.00,VWS V14.01,2013-03-07 15:56:00,
2013-03-07 10:04:00,33.8,25.4,30.25,NE,49,4.0,13.0,71,0.00,,SKC,0.00,VWS V14.01,2013-03-07 16:04:00,
2013-03-07 10:08:00,33.8,25.4,30.25,NE,51,4.0,13.0,71,0.00,,SKC,0.00,VWS V14.01,2013-03-07 16:08:00,
2013-03-07 10:12:00,33.8,25.4,30.25,East,101,5.0,14.0,71,0.00,,SKC,0.00,VWS V14.01,2013-03-07 16:12:00,
2013-03-07 10:16:00,34.1,26.0,30.25,ESE,123,4.0,14.0,72,0.00,,SKC,0.00,VWS V14.01,2013-03-07 16:16:00,
2013-03-07 10:20:00,34.9,26.5,30.24,ENE,74,12.0,17.0,71,0.00,,SKC,0.00,VWS V14.01,2013-03-07 16:20:00,
2013-03-07 10:28:00,35.5,26.4,30.24,SSE,165,8.0,17.0,69,0.00,,SKC,0.00,VWS V14.01,2013-03-07 16:28:00,
2013-03-07 10:32:00,35.8,26.6,30.24,SSW,209,5.0,13.0,69,0.00,,SKC,0.00,VWS V14.01,2013-03-07 16:32:00,
2013-03-07 10:36:00,35.9,26.4,30.24,SSE,159,11.0,15.0,68,0.00,,SKC,0.00,VWS V14.01,2013-03-07 16:36:00,
2013-03-07 10:44:00,36.0,26.5,30.24,ESE,107,13.0,16.0,68,0.00,,SKC,0.00,VWS V14.01,2013-03-07 16:44:00,
2013-03-07 10:48:00,36.2,26.7,30.24,East,84,6.0,16.0,68,0.00,,SKC,0.00,VWS V14.01,2013-03-07 16:48:00,
2013-03-07 10:56:00,36.9,27.3,30.23,SSE,157,5.0,17.0,68,0.00,,SKC,0.00,VWS V14.01,2013-03-07 16:56:00,
2013-03-07 10:59:00,37.4,27.1,30.23,East,92,9.0,17.0,66,0.00,,SKC,0.00,VWS V14.01,2013-03-07 16:59:00,
2013-03-07 11:04:00,38.0,27.7,30.22,SE,146,10.0,17.0,66,0.00,,SKC,0.00,VWS V14.01,2013-03-07 17:04:00,
2013-03-07 11:12:00,38.5,27.4,30.21,ENE,61,12.0,22.0,64,0.00,,SKC,0.00,VWS V14.01,2013-03-07 17:12:00,
2013-03-07 11:20:00,39.7,27.8,30.21,South,183,7.0,22.0,62,0.00,,SKC,0.00,VWS V14.01,2013-03-07 17:20:00,
2013-03-07 11:28:00,39.5,28.0,30.21,WSW,242,4.0,22.0,63,0.00,,SKC,0.00,VWS V14.01,2013-03-07 17:28:00,
2013-03-07 11:36:00,39.7,27.4,30.20,SSE,159,18.0,21.0,61,0.00,,SKC,0.00,VWS V14.01,2013-03-07 17:36:00,
2013-03-07 11:48:00,40.7,27.9,30.20,SE,136,12.0,22.0,60,0.00,,SKC,0.00,VWS V14.01,2013-03-07 17:48:00,
2013-03-07 11:56:00,41.4,28.6,30.19,South,183,11.0,22.0,60,0.00,,SKC,0.00,VWS V14.01,2013-03-07 17:56:00,
2013-03-07 11:59:00,41.6,28.8,30.19,South,187,8.0,22.0,60,0.00,,SKC,0.00,VWS V14.01,2013-03-07 17:59:00,
2013-03-07 12:05:00,41.9,28.2,30.19,SSE,167,14.0,22.0,58,0.00,,SKC,0.00,VWS V14.01,2013-03-07 18:05:00,
2013-03-07 12:13:00,42.2,28.5,30.19,SE,129,12.0,22.0,58,0.00,,SKC,0.00,VWS V14.01,2013-03-07 18:13:00,
2013-03-07 12:21:00,42.1,28.8,30.18,SSW,196,11.0,22.0,59,0.00,,SKC,0.00,VWS V14.01,2013-03-07 18:21:00,
2013-03-07 12:25:00,42.5,29.2,30.18,ESE,121,8.0,22.0,59,0.00,,SKC,0.00,VWS V14.01,2013-03-07 18:25:00,
2013-03-07 12:29:00,43.0,28.8,30.17,South,169,13.0,22.0,57,0.00,,SKC,0.00,VWS V14.01,2013-03-07 18:29:00,
2013-03-07 12:37:00,43.9,29.2,30.17,SSE,163,5.0,18.0,56,0.00,,SKC,0.00,VWS V14.01,2013-03-07 18:37:00,
2013-03-07 12:41:00,44.2,29.5,30.17,SSE,163,8.0,18.0,56,0.00,,SKC,0.00,VWS V14.01,2013-03-07 18:41:00,
2013-03-07 12:45:00,44.7,29.1,30.17,NE,38,9.0,18.0,54,0.00,,SKC,0.00,VWS V14.01,2013-03-07 18:45:00,
2013-03-07 12:49:00,45.2,30.0,30.17,NNE,23,9.0,18.0,55,0.00,,SKC,0.00,VWS V14.01,2013-03-07 18:49:00,
2013-03-07 12:53:00,45.4,29.7,30.17,South,179,11.0,18.0,54,0.00,,SKC,0.00,VWS V14.01,2013-03-07 18:53:00,
2013-03-07 12:57:00,45.4,29.7,30.16,SSW,192,5.0,18.0,54,0.00,,SKC,0.00,VWS V14.01,2013-03-07 18:57:00,
2013-03-07 12:59:00,45.4,29.7,30.16,SSW,199,4.0,18.0,54,0.00,,SKC,0.00,VWS V14.01,2013-03-07 18:59:00,
2013-03-07 13:05:00,45.6,30.4,30.16,WSW,258,7.0,17.0,55,0.00,,SKC,0.00,VWS V14.01,2013-03-07 19:05:00,
2013-03-07 13:13:00,46.0,30.3,30.15,NW,305,4.0,19.0,54,0.00,,SKC,0.00,VWS V14.01,2013-03-07 19:13:00,
2013-03-07 13:25:00,47.1,30.4,30.14,ESE,107,12.0,22.0,52,0.00,,SKC,0.00,VWS V14.01,2013-03-07 19:25:00,
2013-03-07 13:29:00,46.9,29.7,30.14,SSE,168,12.0,22.0,51,0.00,,SKC,0.00,VWS V14.01,2013-03-07 19:29:00,
2013-03-07 13:33:00,47.0,29.8,30.14,NE,41,4.0,17.0,51,0.00,,SKC,0.00,VWS V14.01,2013-03-07 19:33:00,
2013-03-07 13:41:00,47.7,30.0,30.13,SSW,194,5.0,17.0,50,0.00,,SKC,0.00,VWS V14.01,2013-03-07 19:41:00,
2013-03-07 13:45:00,47.9,29.7,30.13,South,176,10.0,17.0,49,0.00,,SKC,0.00,VWS V14.01,2013-03-07 19:45:00,
2013-03-07 13:49:00,48.1,30.8,30.12,SE,134,4.0,17.0,51,0.00,,SKC,0.00,VWS V14.01,2013-03-07 19:49:00,
2013-03-07 13:54:00,48.3,30.0,30.12,SSE,164,10.0,17.0,49,0.00,,SKC,0.00,VWS V14.01,2013-03-07 19:54:00,
2013-03-07 13:59:00,48.4,29.1,30.12,SSE,164,17.0,22.0,47,0.00,,SKC,0.00,VWS V14.01,2013-03-07 19:59:00,
2013-03-07 14:02:00,48.3,29.0,30.12,South,172,18.0,22.0,47,0.00,,SKC,0.00,VWS V14.01,2013-03-07 20:02:00,
2013-03-07 14:06:00,48.8,30.0,30.11,SSE,157,12.0,22.0,48,0.00,,SKC,0.00,VWS V14.01,2013-03-07 20:06:00,
2013-03-07 14:10:00,48.8,29.5,30.12,SSE,166,17.0,22.0,47,0.00,,SKC,0.00,VWS V14.01,2013-03-07 20:10:00,
2013-03-07 14:18:00,49.0,30.2,30.11,East,83,13.0,23.0,48,0.00,,SKC,0.00,VWS V14.01,2013-03-07 20:18:00,
2013-03-07 14:22:00,49.2,29.9,30.11,SE,134,21.0,23.0,47,0.00,,SKC,0.00,VWS V14.01,2013-03-07 20:22:00,
2013-03-07 14:26:00,49.7,30.3,30.11,ESE,122,5.0,23.0,47,0.00,,SKC,0.00,VWS V14.01,2013-03-07 20:26:00,
2013-03-07 14:29:00,50.5,30.0,30.11,SE,136,8.0,23.0,45,0.00,,SKC,0.00,VWS V14.01,2013-03-07 20:29:00,
2013-03-07 14:30:00,50.5,30.0,30.11,SSE,164,11.0,12.0,45,0.00,,SKC,0.00,VWS V14.01,2013-03-07 20:30:00,
2013-03-07 14:38:00,50.0,29.0,30.11,SSE,165,15.0,20.0,44,0.00,,SKC,0.00,VWS V14.01,2013-03-07 20:38:00,
2013-03-07 14:42:00,50.4,31.0,30.11,East,81,3.0,20.0,47,0.00,,SKC,0.00,VWS V14.01,2013-03-07 20:42:00,
2013-03-07 14:50:00,51.0,30.4,30.11,SSE,167,5.0,20.0,45,0.00,,SKC,0.00,VWS V14.01,2013-03-07 20:50:00,
2013-03-07 14:58:00,51.0,30.4,30.11,SSE,148,8.0,22.0,45,0.00,,SKC,0.00,VWS V14.01,2013-03-07 20:58:00,
2013-03-07 14:59:00,50.9,30.3,30.11,South,171,9.0,22.0,45,0.00,,SKC,0.00,VWS V14.01,2013-03-07 20:59:00,
2013-03-07 15:02:00,50.9,29.8,30.11,SSE,165,14.0,17.0,44,0.00,,SKC,0.00,VWS V14.01,2013-03-07 21:02:00,
2013-03-07 15:06:00,51.0,29.9,30.11,SE,128,8.0,17.0,44,0.00,,SKC,0.00,VWS V14.01,2013-03-07 21:06:00,
2013-03-07 15:14:00,51.2,30.0,30.11,SE,127,6.0,20.0,44,0.00,,SKC,0.00,VWS V14.01,2013-03-07 21:14:00,
2013-03-07 15:18:00,51.6,31.0,30.11,East,81,8.0,20.0,45,0.00,,SKC,0.00,VWS V14.01,2013-03-07 21:18:00,
2013-03-07 15:22:00,52.0,31.3,30.11,East,88,6.0,20.0,45,0.00,,SKC,0.00,VWS V14.01,2013-03-07 21:22:00,
2013-03-07 15:26:00,51.9,30.7,30.11,SSE,157,9.0,20.0,44,0.00,,SKC,0.00,VWS V14.01,2013-03-07 21:26:00,
2013-03-07 15:29:00,52.0,30.2,30.11,SSW,211,15.0,20.0,43,0.00,,SKC,0.00,VWS V14.01,2013-03-07 21:29:00,
2013-03-07 15:34:00,51.9,30.7,30.11,SSE,153,6.0,21.0,44,0.00,,SKC,0.00,VWS V14.01,2013-03-07 21:34:00,
2013-03-07 15:42:00,52.2,31.0,30.11,ESE,103,4.0,21.0,44,0.00,,SKC,0.00,VWS V14.01,2013-03-07 21:42:00,
2013-03-07 15:46:00,52.2,31.0,30.11,South,178,7.0,21.0,44,0.00,,SKC,0.00,VWS V14.01,2013-03-07 21:46:00,
2013-03-07 15:50:00,52.3,31.0,30.11,SSE,167,4.0,21.0,44,0.00,,SKC,0.00,VWS V14.01,2013-03-07 21:50:00,
2013-03-07 15:58:00,52.2,31.5,30.10,SW,221,3.0,21.0,45,0.00,,SKC,0.00,VWS V14.01,2013-03-07 21:58:00,
2013-03-07 15:59:00,52.2,31.0,30.10,SE,125,7.0,21.0,44,0.00,,SKC,0.00,VWS V14.01,2013-03-07 21:59:00,
2013-03-07 16:06:00,52.4,31.7,30.10,ESE,119,7.0,16.0,45,0.00,,SKC,0.00,VWS V14.01,2013-03-07 22:06:00,
2013-03-07 16:10:00,52.5,31.2,30.10,WNW,288,5.0,16.0,44,0.00,,SKC,0.00,VWS V14.01,2013-03-07 22:10:00,
2013-03-07 16:18:00,52.2,31.5,30.10,SE,137,10.0,16.0,45,0.00,,SKC,0.00,VWS V14.01,2013-03-07 22:18:00,
2013-03-07 16:22:00,52.3,31.6,30.10,SSW,202,3.0,16.0,45,0.00,,SKC,0.00,VWS V14.01,2013-03-07 22:22:00,
2013-03-07 16:29:00,52.9,31.6,30.10,SE,130,4.0,16.0,44,0.00,,SKC,0.00,VWS V14.01,2013-03-07 22:29:00,
2013-03-07 16:38:00,53.1,31.2,30.10,SSE,161,7.0,16.0,43,0.00,,SKC,0.00,VWS V14.01,2013-03-07 22:38:00,
2013-03-07 16:42:00,53.2,31.3,30.10,SE,134,5.0,16.0,43,0.00,,SKC,0.00,VWS V14.01,2013-03-07 22:42:00,
2013-03-07 16:46:00,53.1,30.6,30.10,South,171,12.0,16.0,42,0.00,,SKC,0.00,VWS V14.01,2013-03-07 22:46:00,
2013-03-07 16:54:00,52.8,30.9,30.10,SE,145,6.0,16.0,43,0.00,,SKC,0.00,VWS V14.01,2013-03-07 22:54:00,
2013-03-07 16:59:00,52.1,31.4,30.10,SE,146,11.0,16.0,45,0.00,,SKC,0.00,VWS V14.01,2013-03-07 22:59:00,
2013-03-07 17:02:00,52.0,31.3,30.10,ESE,103,11.0,11.0,45,0.00,,SKC,0.00,VWS V14.01,2013-03-07 23:02:00,
2013-03-07 17:06:00,51.9,31.8,30.10,East,84,5.0,13.0,46,0.00,,SKC,0.00,VWS V14.01,2013-03-07 23:06:00,
2013-03-07 17:10:00,51.7,31.1,30.10,East,83,6.0,13.0,45,0.00,,SKC,0.00,VWS V14.01,2013-03-07 23:10:00,
2013-03-07 17:14:00,51.4,30.8,30.11,SSE,160,8.0,14.0,45,0.00,,SKC,0.00,VWS V14.01,2013-03-07 23:14:00,
2013-03-07 17:22:00,51.2,31.1,30.11,East,98,8.0,14.0,46,0.00,,SKC,0.00,VWS V14.01,2013-03-07 23:22:00,
2013-03-07 17:29:00,50.4,31.0,30.11,SE,126,4.0,14.0,47,0.00,,SKC,0.00,VWS V14.01,2013-03-07 23:29:00,
2013-03-07 17:30:00,50.3,30.9,30.10,SE,130,8.0,10.0,47,0.00,,SKC,0.00,VWS V14.01,2013-03-07 23:30:00,
2013-03-07 17:34:00,49.7,30.8,30.10,South,171,12.0,13.0,48,0.00,,SKC,0.00,VWS V14.01,2013-03-07 23:34:00,
2013-03-07 17:38:00,49.2,30.4,30.11,NE,53,3.0,14.0,48,0.00,,SKC,0.00,VWS V14.01,2013-03-07 23:38:00,
2013-03-07 17:42:00,48.8,30.5,30.11,East,84,3.0,14.0,49,0.00,,SKC,0.00,VWS V14.01,2013-03-07 23:42:00,
2013-03-07 17:50:00,48.0,30.3,30.10,ESE,107,8.0,14.0,50,0.00,,SKC,0.00,VWS V14.01,2013-03-07 23:50:00,
2013-03-07 17:58:00,47.2,30.5,30.10,ESE,109,1.0,14.0,52,0.00,,SKC,0.00,VWS V14.01,2013-03-07 23:58:00,
2013-03-07 18:02:00,46.9,30.7,30.10,ESE,103,2.0,10.0,53,0.00,,SKC,0.00,VWS V14.01,2013-03-08 00:02:00,
2013-03-07 18:06:00,46.4,30.7,30.10,NE,42,0.0,10.0,54,0.00,,SKC,0.00,VWS V14.01,2013-03-08 00:06:00,
2013-03-07 18:10:00,46.0,30.3,30.10,East,89,3.0,10.0,54,0.00,,SKC,0.00,VWS V14.01,2013-03-08 00:10:00,
2013-03-07 18:14:00,45.6,30.4,30.10,SE,132,2.0,10.0,55,0.00,,SKC,0.00,VWS V14.01,2013-03-08 00:14:00,
2013-03-07 18:22:00,45.3,30.1,30.11,ESE,110,7.0,13.0,55,0.00,,SKC,0.00,VWS V14.01,2013-03-08 00:22:00,
2013-03-07 18:29:00,45.3,30.1,30.11,SSE,147,1.0,13.0,55,0.00,,SKC,0.00,VWS V14.01,2013-03-08 00:29:00,
2013-03-07 18:31:00,45.2,30.0,30.11,SE,143,6.0,9.0,55,0.00,,SKC,0.00,VWS V14.01,2013-03-08 00:31:00,
2013-03-07 18:35:00,44.7,29.5,30.12,ESE,117,9.0,10.0,55,0.00,,SKC,0.00,VWS V14.01,2013-03-08 00:35:00,
2013-03-07 18:39:00,44.1,29.4,30.12,ESE,109,5.0,10.0,56,0.00,,SKC,0.00,VWS V14.01,2013-03-08 00:39:00,
2013-03-07 18:47:00,42.8,29.9,30.12,East,101,7.0,11.0,60,0.00,,SKC,0.00,VWS V14.01,2013-03-08 00:47:00,
2013-03-07 18:51:00,42.7,30.2,30.12,East,91,8.0,11.0,61,0.00,,SKC,0.00,VWS V14.01,2013-03-08 00:51:00,
2013-03-07 18:55:00,42.4,30.3,30.12,ESE,123,9.0,12.0,62,0.00,,SKC,0.00,VWS V14.01,2013-03-08 00:55:00,
2013-03-07 19:07:00,41.5,29.9,30.13,East,93,6.0,11.0,63,0.00,,SKC,0.00,VWS V14.01,2013-03-08 01:07:00,
2013-03-07 19:19:00,40.5,30.0,30.13,East,98,9.0,13.0,66,0.00,,SKC,0.00,VWS V14.01,2013-03-08 01:19:00,
2013-03-07 19:23:00,40.4,30.0,30.14,ESE,107,11.0,13.0,66,0.00,,SKC,0.00,VWS V14.01,2013-03-08 01:23:00,
2013-03-07 19:27:00,40.3,29.9,30.14,East,94,8.0,13.0,66,0.00,,SKC,0.00,VWS V14.01,2013-03-08 01:27:00,
2013-03-07 19:29:00,40.1,30.0,30.14,East,92,7.0,13.0,67,0.00,,SKC,0.00,VWS V14.01,2013-03-08 01:29:00,
2013-03-07 19:35:00,39.6,29.6,30.14,East,97,7.0,10.0,67,0.00,,SKC,0.00,VWS V14.01,2013-03-08 01:35:00,
2013-03-07 19:39:00,39.6,29.6,30.14,ESE,103,9.0,12.0,67,0.00,,SKC,0.00,VWS V14.01,2013-03-08 01:39:00,
2013-03-07 19:43:00,39.4,29.7,30.14,ESE,103,8.0,12.0,68,0.00,,SKC,0.00,VWS V14.01,2013-03-08 01:43:00,
2013-03-07 19:51:00,38.8,29.2,30.15,East,96,7.0,12.0,68,0.00,,SKC,0.00,VWS V14.01,2013-03-08 01:51:00,
2013-03-07 19:59:00,38.3,29.0,30.15,East,91,6.0,12.0,69,0.00,,SKC,0.00,VWS V14.01,2013-03-08 01:59:00,
2013-03-07 20:03:00,38.3,29.4,30.15,East,98,8.0,10.0,70,0.00,,SKC,0.00,VWS V14.01,2013-03-08 02:03:00,
2013-03-07 20:07:00,38.3,29.4,30.15,East,90,6.0,11.0,70,0.00,,SKC,0.00,VWS V14.01,2013-03-08 02:07:00,
2013-03-07 20:15:00,37.7,28.8,30.15,East,101,7.0,11.0,70,0.00,,SKC,0.00,VWS V14.01,2013-03-08 02:15:00,
2013-03-07 20:23:00,37.4,28.9,30.15,ESE,105,7.0,11.0,71,0.00,,SKC,0.00,VWS V14.01,2013-03-08 02:23:00,
2013-03-07 20:27:00,37.2,28.7,30.15,East,100,6.0,11.0,71,0.00,,SKC,0.00,VWS V14.01,2013-03-08 02:27:00,
2013-03-07 20:29:00,37.1,28.9,30.15,ESE,105,8.0,11.0,72,0.00,,SKC,0.00,VWS V14.01,2013-03-08 02:29:00,
2013-03-07 20:35:00,36.8,28.6,30.16,East,96,7.0,11.0,72,0.00,,SKC,0.00,VWS V14.01,2013-03-08 02:35:00,
2013-03-07 20:39:00,36.7,28.5,30.16,ESE,109,10.0,11.0,72,0.00,,SKC,0.00,VWS V14.01,2013-03-08 02:39:00,
2013-03-07 20:43:00,36.5,28.7,30.16,ESE,110,5.0,11.0,73,0.00,,SKC,0.00,VWS V14.01,2013-03-08 02:43:00,
2013-03-07 20:51:00,36.2,28.7,30.16,ESE,110,8.0,11.0,74,0.00,,SKC,0.00,VWS V14.01,2013-03-08 02:51:00,
2013-03-07 20:55:00,36.3,28.8,30.16,East,98,10.0,13.0,74,0.00,,SKC,0.00,VWS V14.01,2013-03-08 02:55:00,
2013-03-07 20:59:00,36.4,28.6,30.16,East,90,10.0,13.0,73,0.00,,SKC,0.00,VWS V14.01,2013-03-08 02:59:00,
2013-03-07 21:07:00,35.9,28.4,30.17,East,99,3.0,11.0,74,0.00,,SKC,0.00,VWS V14.01,2013-03-08 03:07:00,
2013-03-07 21:15:00,35.3,28.2,30.17,East,90,3.0,11.0,75,0.00,,SKC,0.00,VWS V14.01,2013-03-08 03:15:00,
2013-03-07 21:19:00,35.1,28.3,30.17,East,98,6.0,11.0,76,0.00,,SKC,0.00,VWS V14.01,2013-03-08 03:19:00,
2013-03-07 21:27:00,34.8,28.0,30.18,East,91,3.0,11.0,76,0.00,,SKC,0.00,VWS V14.01,2013-03-08 03:27:00,
2013-03-07 21:29:00,34.7,27.9,30.18,East,94,6.0,11.0,76,0.00,,SKC,0.00,VWS V14.01,2013-03-08 03:29:00,
2013-03-07 21:35:00,34.6,28.1,30.18,ENE,66,3.0,8.0,77,0.00,,SKC,0.00,VWS V14.01,2013-03-08 03:35:00,
2013-03-07 21:43:00,34.5,28.0,30.18,ENE,71,4.0,8.0,77,0.00,,SKC,0.00,VWS V14.01,2013-03-08 03:43:00,
2013-03-07 21:51:00,34.1,27.7,30.18,ESE,103,7.0,8.0,77,0.00,,SKC,0.00,VWS V14.01,2013-03-08 03:51:00,
2013-03-07 21:55:00,33.9,27.5,30.18,ESE,113,7.0,8.0,77,0.00,,SKC,0.00,VWS V14.01,2013-03-08 03:55:00,
2013-03-07 21:59:00,33.7,27.6,30.18,East,92,6.0,6.0,78,0.00,,SKC,0.00,VWS V14.01,2013-03-08 03:59:00,
2013-03-07 22:07:00,33.3,27.2,30.19,East,95,5.0,8.0,78,0.00,,SKC,0.00,VWS V14.01,2013-03-08 04:07:00,
2013-03-07 22:11:00,33.1,27.3,30.19,ESE,103,5.0,8.0,79,0.00,,SKC,0.00,VWS V14.01,2013-03-08 04:11:00,
2013-03-07 22:19:00,32.9,27.1,30.19,East,87,5.0,8.0,79,0.00,,SKC,0.00,VWS V14.01,2013-03-08 04:19:00,
2013-03-07 22:23:00,32.9,27.1,30.19,East,94,6.0,9.0,79,0.00,,SKC,0.00,VWS V14.01,2013-03-08 04:23:00,
2013-03-07 22:29:00,32.9,27.1,30.19,ESE,106,4.0,9.0,79,0.00,,SKC,0.00,VWS V14.01,2013-03-08 04:29:00,
2013-03-07 22:32:00,32.9,27.1,30.19,East,101,5.0,7.0,79,0.00,,SKC,0.00,VWS V14.01,2013-03-08 04:32:00,
2013-03-07 22:36:00,33.0,27.2,30.20,ESE,105,3.0,7.0,79,0.00,,SKC,0.00,VWS V14.01,2013-03-08 04:36:00,
2013-03-07 22:40:00,33.0,27.2,30.19,ESE,107,4.0,7.0,79,0.00,,SKC,0.00,VWS V14.01,2013-03-08 04:40:00,
2013-03-07 22:44:00,32.9,27.1,30.19,East,94,7.0,8.0,79,0.00,,SKC,0.00,VWS V14.01,2013-03-08 04:44:00,
2013-03-07 22:48:00,33.0,26.9,30.19,ESE,115,4.0,9.0,78,0.00,,SKC,0.00,VWS V14.01,2013-03-08 04:48:00,
2013-03-07 22:52:00,33.0,26.9,30.19,ESE,103,4.0,9.0,78,0.00,,SKC,0.00,VWS V14.01,2013-03-08 04:52:00,
2013-03-07 22:59:00,32.7,26.9,30.19,East,99,3.0,9.0,79,0.00,,SKC,0.00,VWS V14.01,2013-03-08 04:59:00,
2013-03-07 23:00:00,32.7,26.9,30.19,East,93,3.0,5.0,79,0.00,,SKC,0.00,VWS V14.01,2013-03-08 05:00:00,
2013-03-07 23:04:00,32.8,27.0,30.19,ESE,107,5.0,8.0,79,0.00,,SKC,0.00,VWS V14.01,2013-03-08 05:04:00,
2013-03-07 23:12:00,32.7,26.9,30.19,ESE,105,3.0,8.0,79,0.00,,SKC,0.00,VWS V14.01,2013-03-08 05:12:00,
2013-03-07 23:16:00,32.6,26.8,30.19,ESE,102,7.0,8.0,79,0.00,,SKC,0.00,VWS V14.01,2013-03-08 05:16:00,
2013-03-07 23:24:00,32.5,26.7,30.19,East,96,6.0,8.0,79,0.00,,SKC,0.00,VWS V14.01,2013-03-08 05:24:00,
2013-03-07 23:28:00,32.4,26.6,30.20,East,101,5.0,8.0,79,0.00,,SKC,0.00,VWS V14.01,2013-03-08 05:28:00,
2013-03-07 23:29:00,32.4,26.6,30.20,East,96,5.0,8.0,79,0.00,,SKC,0.00,VWS V14.01,2013-03-08 05:29:00,
2013-03-07 23:32:00,32.3,26.5,30.19,ESE,102,7.0,8.0,79,0.00,,SKC,0.00,VWS V14.01,2013-03-08 05:32:00,
2013-03-07 23:40:00,32.2,26.7,30.19,East,98,5.0,8.0,80,0.00,,SKC,0.00,VWS V14.01,2013-03-08 05:40:00,
2013-03-07 23:44:00,32.1,26.6,30.19,ESE,105,4.0,8.0,80,0.00,,SKC,0.00,VWS V14.01,2013-03-08 05:44:00,
2013-03-07 23:52:00,32.0,26.5,30.19,ESE,103,5.0,8.0,80,0.00,,SKC,0.00,VWS V14.01,2013-03-08 05:52:00,
2013-03-07 23:59:00,31.9,26.4,30.19,ESE,105,3.0,8.0,80,0.00,,SKC,0.00,VWS V14.01,2013-03-08 05:59:00,